Time;durP1;ratioP1;P1;durP2;ratioP2;P2;SDS_P1;SDS_P2;PMS_P1;PMS_P2;Temp;Humidity;BMP_temperature;BMP_pressure;BME280_temperature;BME280_humidity;BME280_pressure;Samples;Min_cycle;Max_cycle;Signal;HPM_P1;HPM_P2
2023/08/13 00:01:30;;;;;;;5.93;3.70;;;18.20;99.90;;;;;;5058637;28;20522;-82
2023/08/13 00:03:57;;;;;;;6.00;3.53;;;18.20;99.90;;;;;;5058279;28;20485;-82
2023/08/13 00:06:24;;;;;;;7.27;3.40;;;18.10;99.90;;;;;;5058252;28;20522;-83
2023/08/13 00:08:51;;;;;;;6.90;3.10;;;18.10;99.90;;;;;;5059046;28;20499;-83
2023/08/13 00:11:19;;;;;;;4.90;3.47;;;18.10;99.90;;;;;;5058985;28;20453;-83
2023/08/13 00:13:46;;;;;;;7.23;2.93;;;18.10;99.90;;;;;;5031191;28;20873;-82
2023/08/13 00:16:13;;;;;;;5.60;3.73;;;18.10;99.90;;;;;;5018960;28;20452;-83
2023/08/13 00:18:40;;;;;;;6.20;3.20;;;18.00;99.90;;;;;;5019050;28;20457;-83
2023/08/13 00:21:07;;;;;;;4.97;3.20;;;18.00;99.90;;;;;;5018936;28;20456;-83
2023/08/13 00:23:34;;;;;;;4.43;2.87;;;18.00;99.90;;;;;;5018886;28;20516;-83
2023/08/13 00:26:01;;;;;;;4.03;3.20;;;18.00;99.90;;;;;;5018964;28;20813;-83
2023/08/13 00:28:30;;;;;;;4.80;2.93;;;18.00;99.90;;;;;;5019878;28;20493;-83
2023/08/13 00:30:57;;;;;;;5.17;3.00;;;17.90;99.90;;;;;;5038572;28;20456;-83
2023/08/13 00:33:24;;;;;;;5.17;2.90;;;17.90;99.90;;;;;;5038167;28;20475;-83
2023/08/13 00:35:51;;;;;;;4.90;3.07;;;18.00;99.90;;;;;;5038544;28;20449;-82
2023/08/13 00:38:18;;;;;;;4.17;3.07;;;17.90;99.90;;;;;;5039078;28;20444;-82
2023/08/13 00:40:45;;;;;;;5.73;3.10;;;17.90;99.90;;;;;;5038092;28;20452;-83
2023/08/13 00:43:11;;;;;;;6.93;3.10;;;17.90;99.90;;;;;;5038385;28;20481;-82
2023/08/13 00:45:40;;;;;;;5.73;3.30;;;17.90;99.90;;;;;;5037015;28;20456;-83
2023/08/13 00:48:08;;;;;;;5.17;3.10;;;17.90;99.90;;;;;;5036478;28;20903;-82
2023/08/13 00:50:35;;;;;;;7.27;3.27;;;17.90;99.90;;;;;;5038620;28;20523;-83
2023/08/13 00:53:02;;;;;;;7.70;3.40;;;17.90;99.90;;;;;;5038239;28;20555;-82
2023/08/13 00:55:29;;;;;;;6.43;3.13;;;17.90;99.90;;;;;;5038344;28;20460;-82
2023/08/13 00:57:56;;;;;;;6.43;3.40;;;17.90;99.90;;;;;;5039410;28;20439;-83
2023/08/13 01:00:23;;;;;;;3.87;3.00;;;17.90;99.90;;;;;;5037966;28;20520;-82
2023/08/13 01:02:51;;;;;;;4.50;2.70;;;17.90;99.90;;;;;;5036533;28;20535;-83
2023/08/13 01:05:18;;;;;;;5.23;3.30;;;17.90;99.90;;;;;;5046323;28;21027;-82
2023/08/13 01:07:55;;;;;;;5.10;3.30;;;17.90;99.90;;;;;;5054731;28;20490;-82
2023/08/13 01:10:31;;;;;;;4.87;2.90;;;17.90;99.90;;;;;;5058257;28;20538;-82
2023/08/13 01:13:02;;;;;;;11.53;2.80;;;17.90;99.90;;;;;;5058178;28;20478;-82
2023/08/13 01:15:32;;;;;;;4.90;2.80;;;18.00;99.90;;;;;;5042598;28;20537;-83
2023/08/13 01:18:01;;;;;;;7.60;3.63;;;18.00;99.90;;;;;;5019859;28;20441;-83
2023/08/13 01:20:30;;;;;;;6.47;3.30;;;18.00;99.90;;;;;;5019923;28;20495;-83
2023/08/13 01:22:58;;;;;;;3.90;3.10;;;18.00;99.90;;;;;;5037279;28;20925;-83
2023/08/13 01:25:27;;;;;;;4.57;3.37;;;18.00;99.90;;;;;;5039228;28;20491;-83
2023/08/13 01:28:02;;;;;;;3.40;2.47;;;18.00;99.90;;;;;;5038423;28;20516;-82
2023/08/13 01:30:34;;;;;;;6.77;3.70;;;18.00;99.90;;;;;;5037813;28;20465;-81
2023/08/13 01:33:04;;;;;;;5.47;3.37;;;18.00;99.90;;;;;;5037955;28;20562;-82
2023/08/13 01:35:33;;;;;;;6.27;3.23;;;18.00;99.90;;;;;;5038049;28;20917;-82
2023/08/13 01:38:03;;;;;;;5.20;3.40;;;18.00;99.90;;;;;;5038236;28;20457;-83
2023/08/13 01:40:30;;;;;;;8.80;3.60;;;18.00;99.90;;;;;;5037785;28;20458;-81
2023/08/13 01:42:57;;;;;;;6.43;3.00;;;18.00;99.90;;;;;;5037228;28;20974;-83
2023/08/13 01:45:23;;;;;;;5.87;3.20;;;18.00;99.90;;;;;;5037692;28;20456;-83
2023/08/13 01:47:50;;;;;;;5.30;3.10;;;18.00;99.90;;;;;;5035709;28;20491;-83
2023/08/13 01:50:17;;;;;;;5.30;3.00;;;18.00;99.90;;;;;;5022357;28;20540;-83
2023/08/13 01:52:44;;;;;;;6.60;3.33;;;18.00;99.90;;;;;;5027956;28;20461;-82
2023/08/13 01:55:12;;;;;;;8.30;3.73;;;17.90;99.90;;;;;;5022217;28;20452;-83
2023/08/13 01:57:39;;;;;;;4.23;2.90;;;17.90;99.90;;;;;;5030219;28;20444;-83
2023/08/13 02:00:07;;;;;;;4.33;2.70;;;17.90;99.90;;;;;;5030238;28;20460;-83
2023/08/13 02:02:35;;;;;;;4.90;2.47;;;17.90;99.90;;;;;;5031811;28;20450;-83
2023/08/13 02:05:01;;;;;;;3.77;2.90;;;17.80;99.90;;;;;;5030198;28;20489;-83
2023/08/13 02:07:28;;;;;;;5.20;2.80;;;17.80;99.90;;;;;;5028930;28;20497;-82
2023/08/13 02:09:55;;;;;;;4.33;3.20;;;17.80;99.90;;;;;;5038283;28;20737;-83
2023/08/13 02:12:23;;;;;;;4.80;3.20;;;17.80;99.90;;;;;;5032671;28;20452;-83
2023/08/13 02:14:50;;;;;;;3.53;2.87;;;17.80;99.90;;;;;;5031063;28;20554;-84
2023/08/13 02:17:17;;;;;;;4.37;2.60;;;17.80;99.90;;;;;;5030874;28;20461;-83
2023/08/13 02:19:44;;;;;;;5.73;3.27;;;17.70;99.90;;;;;;5027611;28;20495;-83
2023/08/13 02:22:10;;;;;;;3.97;2.90;;;17.70;99.90;;;;;;5020619;28;20471;-84
2023/08/13 02:24:37;;;;;;;4.87;2.77;;;17.70;99.90;;;;;;5020468;28;20480;-84
2023/08/13 02:27:04;;;;;;;5.83;2.90;;;17.60;99.90;;;;;;5020931;28;20460;-83
2023/08/13 02:29:33;;;;;;;5.43;2.60;;;17.60;99.90;;;;;;5027098;28;20461;-82
2023/08/13 02:31:59;;;;;;;9.00;3.87;;;17.60;99.90;;;;;;5017679;28;20463;-82
2023/08/13 02:34:27;;;;;;;5.20;2.90;;;17.60;99.90;;;;;;5036784;28;20479;-83
2023/08/13 02:36:54;;;;;;;4.80;3.20;;;17.60;99.90;;;;;;5038125;28;20520;-82
2023/08/13 02:39:20;;;;;;;5.67;2.70;;;17.60;99.90;;;;;;5038075;28;20541;-83
2023/08/13 02:41:47;;;;;;;6.17;3.13;;;17.60;99.90;;;;;;5021382;28;20460;-82
2023/08/13 02:44:14;;;;;;;9.00;3.00;;;17.60;99.90;;;;;;5018435;28;20485;-82
2023/08/13 02:46:46;;;;;;;4.50;3.20;;;17.50;99.90;;;;;;5017889;28;20480;-82
2023/08/13 02:49:13;;;;;;;11.03;2.80;;;17.50;99.90;;;;;;5018449;28;20492;-83
2023/08/13 02:51:40;;;;;;;5.43;2.80;;;17.50;99.90;;;;;;5018479;28;20576;-82
2023/08/13 02:54:07;;;;;;;8.30;3.73;;;17.50;99.90;;;;;;5022853;28;20479;-83
2023/08/13 02:56:33;;;;;;;6.50;3.37;;;17.50;99.90;;;;;;5037938;28;20455;-83
2023/08/13 02:59:00;;;;;;;7.80;3.67;;;17.50;99.90;;;;;;5047200;28;20452;-83
2023/08/13 03:01:27;;;;;;;5.10;2.67;;;17.50;99.90;;;;;;5026252;28;20475;-83
2023/08/13 03:03:58;;;;;;;4.40;2.47;;;17.40;99.90;;;;;;5019281;28;20473;-83
2023/08/13 03:06:25;;;;;;;6.90;3.90;;;17.40;99.90;;;;;;5018922;28;20480;-83
2023/08/13 03:08:52;;;;;;;9.27;4.77;;;17.40;99.90;;;;;;5019236;28;20485;-82
2023/08/13 03:11:19;;;;;;;4.90;2.93;;;17.40;99.90;;;;;;5035641;28;20453;-83
2023/08/13 03:13:46;;;;;;;7.60;3.10;;;17.30;99.90;;;;;;5043416;28;20490;-82
2023/08/13 03:16:13;;;;;;;4.47;3.30;;;17.30;99.90;;;;;;5044431;28;20885;-83
2023/08/13 03:18:41;;;;;;;5.73;2.67;;;17.30;99.90;;;;;;5044459;28;20830;-81
2023/08/13 03:21:09;;;;;;;8.77;3.50;;;17.30;99.90;;;;;;5027971;28;20535;-82
2023/08/13 03:23:35;;;;;;;6.03;3.27;;;17.30;99.90;;;;;;5023053;28;20494;-83
2023/08/13 03:26:03;;;;;;;6.13;3.10;;;17.20;99.90;;;;;;5024973;28;20452;-83
2023/08/13 03:28:29;;;;;;;6.93;3.00;;;17.20;99.90;;;;;;5043692;28;20513;-83
2023/08/13 03:31:00;;;;;;;4.27;2.93;;;17.20;99.90;;;;;;5044065;28;20465;-83
2023/08/13 03:33:26;;;;;;;3.83;2.57;;;17.20;99.90;;;;;;5044152;28;20491;-83
2023/08/13 03:35:53;;;;;;;4.83;2.90;;;17.10;99.90;;;;;;5048580;28;20452;-83
2023/08/13 03:38:21;;;;;;;5.80;3.10;;;17.10;99.90;;;;;;5043422;28;20455;-82
2023/08/13 03:40:48;;;;;;;4.20;2.80;;;17.10;99.90;;;;;;5026758;28;20454;-82
2023/08/13 03:43:15;;;;;;;7.40;3.77;;;17.10;99.90;;;;;;5021423;28;20915;-82
2023/08/13 03:45:42;;;;;;;6.83;2.30;;;17.00;99.90;;;;;;5020480;28;20449;-83
2023/08/13 03:48:09;;;;;;;4.30;2.50;;;17.00;99.90;;;;;;5020978;28;20479;-83
2023/08/13 03:50:41;;;;;;;5.53;2.70;;;17.00;99.90;;;;;;5021302;28;20983;-82
2023/08/13 03:53:08;;;;;;;6.83;2.73;;;17.00;99.90;;;;;;5023084;28;20482;-83
2023/08/13 03:55:36;;;;;;;7.53;2.03;;;16.90;99.90;;;;;;5039714;28;20463;-82
2023/08/13 03:58:03;;;;;;;7.67;2.90;;;16.90;99.90;;;;;;5041346;28;20902;-83
2023/08/13 04:00:30;;;;;;;4.90;2.33;;;16.90;99.90;;;;;;5040582;28;20546;-82
2023/08/13 04:02:57;;;;;;;5.13;3.10;;;16.90;99.90;;;;;;5040979;28;20470;-82
2023/08/13 04:05:24;;;;;;;6.17;2.90;;;16.90;99.90;;;;;;5039907;28;20537;-82
2023/08/13 04:07:51;;;;;;;5.43;2.30;;;16.90;99.90;;;;;;5040621;28;20457;-83
2023/08/13 04:10:18;;;;;;;4.47;2.33;;;16.80;99.90;;;;;;5038763;28;21026;-82
2023/08/13 04:12:46;;;;;;;6.20;2.57;;;16.80;99.90;;;;;;5040159;28;20507;-82
2023/08/13 04:15:13;;;;;;;6.03;2.60;;;16.80;99.90;;;;;;5039142;28;20458;-83
2023/08/13 04:17:40;;;;;;;3.67;2.40;;;16.80;99.90;;;;;;5039943;28;20484;-83
2023/08/13 04:20:10;;;;;;;4.77;2.53;;;16.80;99.90;;;;;;5039135;28;20467;-82
2023/08/13 04:22:37;;;;;;;4.77;3.07;;;16.80;99.90;;;;;;5038861;28;20562;-83
2023/08/13 04:25:04;;;;;;;6.47;2.30;;;16.70;99.90;;;;;;5040086;28;20568;-82
2023/08/13 04:27:31;;;;;;;8.77;2.93;;;16.70;99.90;;;;;;5037518;28;20459;-83
2023/08/13 04:29:59;;;;;;;4.40;2.60;;;16.70;99.90;;;;;;5039757;28;20516;-83
2023/08/13 04:32:26;;;;;;;4.70;2.57;;;16.70;99.90;;;;;;5039504;28;20559;-82
2023/08/13 04:34:52;;;;;;;4.00;2.73;;;16.70;99.90;;;;;;5038518;28;20502;-82
2023/08/13 04:37:19;;;;;;;8.33;2.60;;;16.70;99.90;;;;;;5038866;28;20553;-82
2023/08/13 04:39:46;;;;;;;8.50;3.00;;;16.70;99.90;;;;;;5038795;28;20462;-81
2023/08/13 04:42:13;;;;;;;5.80;3.17;;;16.70;99.90;;;;;;5038851;28;20540;-83
2023/08/13 04:44:39;;;;;;;6.13;3.03;;;16.70;99.90;;;;;;5039566;28;20473;-83
2023/08/13 04:47:08;;;;;;;4.33;2.37;;;16.70;99.90;;;;;;5039502;28;20455;-83
2023/08/13 04:49:34;;;;;;;5.20;2.27;;;16.80;99.90;;;;;;5039341;28;20493;-82
2023/08/13 04:52:01;;;;;;;4.90;2.43;;;16.80;99.90;;;;;;5038764;28;20464;-83
2023/08/13 04:54:28;;;;;;;8.40;2.70;;;16.80;99.90;;;;;;5018929;28;20476;-83
2023/08/13 04:56:55;;;;;;;7.63;2.80;;;16.80;99.90;;;;;;5029591;28;20491;-83
2023/08/13 04:59:21;;;;;;;4.33;2.30;;;16.80;99.90;;;;;;5026367;28;20991;-82
2023/08/13 05:01:48;;;;;;;5.80;2.90;;;16.80;99.90;;;;;;5018991;28;20450;-83
2023/08/13 05:04:17;;;;;;;5.93;2.57;;;16.90;99.90;;;;;;5018900;28;20481;-82
2023/08/13 05:06:44;;;;;;;5.40;2.73;;;16.90;99.90;;;;;;5018731;28;20511;-82
2023/08/13 05:09:11;;;;;;;4.17;2.27;;;16.90;99.90;;;;;;5020627;28;21008;-84
2023/08/13 05:11:38;;;;;;;5.83;2.73;;;17.00;99.90;;;;;;5018407;28;20955;-82
2023/08/13 05:14:07;;;;;;;3.77;2.77;;;17.00;99.90;;;;;;5019057;28;20515;-81
2023/08/13 05:16:34;;;;;;;5.70;2.50;;;17.00;99.90;;;;;;5018520;28;20546;-83
2023/08/13 05:19:01;;;;;;;5.83;2.77;;;17.10;99.90;;;;;;5018086;28;20448;-83
2023/08/13 05:21:29;;;;;;;5.10;2.90;;;17.10;99.90;;;;;;5018702;28;20456;-83
2023/08/13 05:23:56;;;;;;;4.37;2.77;;;17.20;99.90;;;;;;5052505;23;20497;-83
2023/08/13 05:26:23;;;;;;;5.47;2.40;;;17.20;99.90;;;;;;5036647;28;20534;-83
2023/08/13 05:28:49;;;;;;;5.07;2.67;;;17.30;99.90;;;;;;5037424;28;20507;-84
2023/08/13 05:31:17;;;;;;;6.67;2.60;;;17.30;99.90;;;;;;5051994;28;20469;-84
2023/08/13 05:33:44;;;;;;;5.17;2.77;;;17.40;99.90;;;;;;5054148;28;20463;-85
2023/08/13 05:36:10;;;;;;;4.30;2.63;;;17.50;99.90;;;;;;5037109;28;20459;-84
2023/08/13 05:38:39;;;;;;;5.33;2.53;;;17.50;99.90;;;;;;5037717;28;20488;-86
2023/08/13 05:41:06;;;;;;;5.93;2.63;;;17.60;99.90;;;;;;5038728;28;20471;-82
2023/08/13 05:43:33;;;;;;;6.97;3.17;;;17.60;99.90;;;;;;5035165;28;20463;-84
2023/08/13 05:45:59;;;;;;;7.50;2.60;;;17.70;99.90;;;;;;5037301;28;20448;-84
2023/08/13 05:48:26;;;;;;;5.07;2.30;;;17.80;99.90;;;;;;5035430;28;20575;-84
2023/08/13 05:50:53;;;;;;;4.60;2.50;;;17.80;99.90;;;;;;5035045;28;20865;-82
2023/08/13 05:53:20;;;;;;;9.40;3.00;;;17.90;99.90;;;;;;5016199;28;20455;-84
2023/08/13 05:55:48;;;;;;;5.43;2.40;;;17.90;99.90;;;;;;5024597;28;20861;-83
2023/08/13 05:58:15;;;;;;;6.10;3.07;;;17.90;99.90;;;;;;5036340;28;21013;-84
2023/08/13 06:00:42;;;;;;;7.97;4.27;;;18.00;99.90;;;;;;5037529;28;20547;-84
2023/08/13 06:03:08;;;;;;;4.10;2.57;;;18.00;99.90;;;;;;5039170;28;21081;-84
2023/08/13 06:05:35;;;;;;;6.17;2.93;;;18.10;99.90;;;;;;5037124;28;20475;-84
2023/08/13 06:08:03;;;;;;;5.03;2.10;;;18.10;99.90;;;;;;5046325;28;20480;-86
2023/08/13 06:10:30;;;;;;;4.20;2.57;;;18.10;99.90;;;;;;5040112;28;20511;-84
2023/08/13 06:12:58;;;;;;;3.93;2.27;;;18.20;99.90;;;;;;5045535;28;20532;-85
2023/08/13 06:15:25;;;;;;;4.30;2.67;;;18.20;99.90;;;;;;5053869;28;20793;-84
2023/08/13 06:17:52;;;;;;;5.20;2.60;;;18.30;99.90;;;;;;5054849;28;20509;-84
2023/08/13 06:20:19;;;;;;;3.30;2.20;;;18.30;99.90;;;;;;5055053;28;20512;-85
2023/08/13 06:22:48;;;;;;;4.13;2.20;;;18.30;99.90;;;;;;5056293;28;20451;-84
2023/08/13 06:25:15;;;;;;;3.83;2.30;;;18.30;99.90;;;;;;5055580;28;20532;-86
2023/08/13 06:27:42;;;;;;;5.87;2.67;;;18.30;99.90;;;;;;5056298;28;20472;-85
2023/08/13 06:30:11;;;;;;;3.63;2.70;;;18.30;99.90;;;;;;5055515;28;20479;-83
2023/08/13 06:32:46;;;;;;;9.50;2.70;;;18.30;99.90;;;;;;5055722;28;20461;-86
2023/08/13 06:35:15;;;;;;;4.10;2.37;;;18.30;99.90;;;;;;5055258;28;20510;-83
2023/08/13 06:37:42;;;;;;;5.60;2.67;;;18.40;99.90;;;;;;5047387;28;20488;-83
2023/08/13 06:40:10;;;;;;;4.17;2.20;;;18.50;99.90;;;;;;5041889;28;20549;-84
2023/08/13 06:42:37;;;;;;;5.00;2.37;;;18.50;99.90;;;;;;5039731;28;20933;-83
2023/08/13 06:45:04;;;;;;;5.33;2.40;;;18.60;99.90;;;;;;5037294;28;20484;-84
2023/08/13 06:47:33;;;;;;;5.23;2.40;;;18.70;99.90;;;;;;5042713;28;20507;-82
2023/08/13 06:50:00;;;;;;;2.80;2.00;;;18.80;99.90;;;;;;5042643;28;20511;-84
2023/08/13 06:52:27;;;;;;;7.17;2.40;;;18.80;99.90;;;;;;5039104;28;20448;-83
2023/08/13 06:54:53;;;;;;;4.00;2.20;;;19.00;99.90;;;;;;5038305;28;20522;-82
2023/08/13 06:57:20;;;;;;;3.60;2.30;;;19.00;99.90;;;;;;5037805;28;20452;-83
2023/08/13 07:00:03;;;;;;;6.50;2.00;;;19.10;99.90;;;;;;5038340;28;20965;-83
2023/08/13 07:02:29;;;;;;;6.13;2.30;;;19.20;99.90;;;;;;5036541;28;20495;-83
2023/08/13 07:04:58;;;;;;;4.33;2.33;;;19.20;99.90;;;;;;5036816;28;20499;-86
2023/08/13 07:07:26;;;;;;;3.80;1.83;;;19.30;99.90;;;;;;5040043;28;20539;-85
2023/08/13 07:09:52;;;;;;;8.63;2.70;;;19.40;99.90;;;;;;5039643;28;20485;-84
2023/08/13 07:12:19;;;;;;;5.00;2.77;;;19.30;99.90;;;;;;5037679;28;20452;-86
2023/08/13 07:14:46;;;;;;;4.67;2.40;;;19.40;99.90;;;;;;5033056;28;20553;-83
2023/08/13 07:17:13;;;;;;;6.43;2.70;;;19.40;99.90;;;;;;5030243;28;21002;-84
2023/08/13 07:19:40;;;;;;;4.87;2.30;;;19.30;99.90;;;;;;5032674;28;20881;-85
2023/08/13 07:22:08;;;;;;;4.47;2.13;;;19.40;99.90;;;;;;5032747;28;20969;-83
2023/08/13 07:24:35;;;;;;;5.00;2.27;;;19.40;99.90;;;;;;5041069;28;20504;-84
2023/08/13 07:27:02;;;;;;;6.30;2.43;;;19.40;99.90;;;;;;5041096;28;20540;-85
2023/08/13 07:29:29;;;;;;;4.80;2.03;;;19.40;99.90;;;;;;5042224;28;20484;-83
2023/08/13 07:31:56;;;;;;;3.40;2.13;;;19.40;99.90;;;;;;5041353;28;20448;-84
2023/08/13 07:34:28;;;;;;;6.87;1.97;;;19.40;99.90;;;;;;5041086;28;20500;-83
2023/08/13 07:37:08;;;;;;;4.50;1.70;;;19.40;99.90;;;;;;5037868;28;20954;-84
2023/08/13 07:39:38;;;;;;;6.17;1.80;;;19.40;99.90;;;;;;5026849;28;20828;-83
2023/08/13 07:42:08;;;;;;;6.03;1.50;;;19.50;99.90;;;;;;5022180;28;20458;-85
2023/08/13 07:44:35;;;;;;;8.57;2.37;;;19.60;71.30;;;;;;5037233;28;20477;-82
2023/08/13 07:47:02;;;;;;;5.17;2.20;;;19.60;40.10;;;;;;5042302;28;20547;-83
2023/08/13 07:49:29;;;;;;;5.00;1.80;;;19.70;68.80;;;;;;5046071;28;20492;-84
2023/08/13 07:51:56;;;;;;;5.70;1.97;;;19.90;99.00;;;;;;5040917;28;20491;-83
2023/08/13 07:54:24;;;;;;;4.03;1.67;;;19.90;99.90;;;;;;5041453;28;20473;-87
2023/08/13 07:56:52;;;;;;;6.63;2.30;;;20.00;99.90;;;;;;5037486;28;20477;-83
2023/08/13 07:59:20;;;;;;;6.27;1.50;;;20.00;61.20;;;;;;5042100;28;20611;-85
2023/08/13 08:01:46;;;;;;;7.90;1.60;;;20.10;58.30;;;;;;5041086;28;20972;-83
2023/08/13 08:04:13;;;;;;;9.27;1.67;;;20.20;21.40;;;;;;5041230;28;20464;-84
2023/08/13 08:06:40;;;;;;;3.30;1.40;;;20.20;1.00;;;;;;5040065;28;20507;-84
2023/08/13 08:09:07;;;;;;;4.00;1.70;;;20.40;23.90;;;;;;5040121;28;20500;-83
2023/08/13 08:11:34;;;;;;;5.30;2.20;;;20.50;29.30;;;;;;5035980;28;20461;-83
2023/08/13 08:14:03;;;;;;;6.43;2.30;;;20.50;1.00;;;;;;5037928;28;20481;-83
2023/08/13 08:16:31;;;;;;;11.10;1.73;;;20.60;1.00;;;;;;5020457;28;20454;-82
2023/08/13 08:18:57;;;;;;;5.37;1.23;;;20.60;1.00;;;;;;5021122;28;20516;-84
2023/08/13 08:21:24;;;;;;;4.70;1.67;;;20.70;1.00;;;;;;5021144;28;20496;-83
2023/08/13 08:23:51;;;;;;;5.27;2.10;;;20.90;1.00;;;;;;5020564;28;20560;-84
2023/08/13 08:26:18;;;;;;;2.93;1.33;;;21.00;1.00;;;;;;5020708;28;20540;-82
2023/08/13 08:28:45;;;;;;;6.97;1.90;;;21.10;99.90;;;;;;5023591;28;20891;-83
2023/08/13 08:31:13;;;;;;;4.37;1.40;;;21.20;1.00;;;;;;5041436;28;20552;-83
2023/08/13 08:33:40;;;;;;;5.53;1.77;;;21.40;1.00;;;;;;5040130;28;20540;-84
2023/08/13 08:36:06;;;;;;;6.43;1.90;;;21.50;1.00;;;;;;5039818;28;21080;-83
2023/08/13 08:38:37;;;;;;;5.20;1.80;;;21.60;1.00;;;;;;5039945;28;20847;-84
2023/08/13 08:41:04;;;;;;;6.80;2.10;;;21.70;1.00;;;;;;5040460;28;20799;-85
2023/08/13 08:43:32;;;;;;;5.33;2.03;;;21.70;1.00;;;;;;5040008;28;20463;-83
2023/08/13 08:45:59;;;;;;;5.50;1.80;;;21.80;1.00;;;;;;5040255;28;20457;-84
2023/08/13 08:48:28;;;;;;;5.70;2.00;;;21.80;1.00;;;;;;5041107;28;20445;-85
2023/08/13 08:50:56;;;;;;;5.70;1.83;;;21.90;1.00;;;;;;5040450;28;20876;-83
2023/08/13 08:53:23;;;;;;;4.33;1.53;;;22.00;1.00;;;;;;5040868;28;21032;-82
2023/08/13 08:55:50;;;;;;;6.47;1.67;;;22.10;1.00;;;;;;5040459;28;20528;-86
2023/08/13 08:58:17;;;;;;;3.70;1.50;;;22.00;75.80;;;;;;5040448;28;20448;-83
2023/08/13 09:00:44;;;;;;;3.17;1.57;;;22.10;99.90;;;;;;5039891;28;20468;-85
2023/08/13 09:03:11;;;;;;;6.77;1.70;;;22.20;99.90;;;;;;5039429;28;20453;-85
2023/08/13 09:05:39;;;;;;;7.50;2.40;;;22.20;1.00;;;;;;5039247;28;20918;-85
2023/08/13 09:08:11;;;;;;;4.63;1.50;;;22.10;12.70;;;;;;5038553;28;20459;-85
2023/08/13 09:10:41;;;;;;;3.50;1.47;;;22.00;1.00;;;;;;5039454;28;21012;-85
2023/08/13 09:13:08;;;;;;;4.33;1.67;;;22.10;43.30;;;;;;5039526;28;21008;-85
2023/08/13 09:15:38;;;;;;;2.93;1.23;;;22.20;99.90;;;;;;5038751;28;21011;-84
2023/08/13 09:18:06;;;;;;;5.23;1.70;;;22.30;99.90;;;;;;5039226;28;20516;-83
2023/08/13 09:20:33;;;;;;;4.63;1.60;;;22.40;99.90;;;;;;5039148;28;20449;-83
2023/08/13 09:23:01;;;;;;;4.43;1.30;;;22.50;1.00;;;;;;5039388;28;20445;-84
2023/08/13 09:25:29;;;;;;;4.33;1.60;;;22.60;1.00;;;;;;5038302;28;20502;-86
2023/08/13 09:27:55;;;;;;;5.70;1.70;;;22.60;1.00;;;;;;5040646;28;20512;-86
2023/08/13 09:30:28;;;;;;;5.33;1.67;;;22.60;99.90;;;;;;5040181;28;20487;-84
2023/08/13 09:32:57;;;;;;;4.50;1.50;;;22.60;99.90;;;;;;5038462;28;20456;-84
2023/08/13 09:35:27;;;;;;;4.23;1.87;;;22.80;99.90;;;;;;5038528;28;20530;-86
2023/08/13 09:37:53;;;;;;;6.40;1.53;;;23.00;99.90;;;;;;5039280;28;20532;-83
2023/08/13 09:40:21;;;;;;;3.57;1.20;;;23.10;5.20;;;;;;5038167;28;20452;-84
2023/08/13 09:42:56;;;;;;;5.47;2.50;;;23.20;99.90;;;;;;5035929;28;20956;-84
2023/08/13 09:45:27;;;;;;;3.70;1.20;;;23.30;1.00;;;;;;5038620;28;20507;-84
2023/08/13 09:47:59;;;;;;;4.40;1.50;;;23.40;99.90;;;;;;5028963;28;20519;-85
2023/08/13 09:50:29;;;;;;;6.03;1.53;;;23.50;1.00;;;;;;5032534;28;20577;-85
2023/08/13 09:52:58;;;;;;;3.57;1.27;;;23.50;99.90;;;;;;5026316;28;20455;-85
2023/08/13 09:55:32;;;;;;;4.40;1.83;;;23.70;17.20;;;;;;5029928;28;20533;-85
2023/08/13 09:58:01;;;;;;;3.20;1.20;;;23.80;27.10;;;;;;5038409;28;20519;-85
2023/08/13 10:00:28;;;;;;;2.93;1.37;;;23.90;1.00;;;;;;5037257;28;20437;-83
2023/08/13 10:02:55;;;;;;;2.70;1.33;;;23.80;99.90;;;;;;5037556;28;20520;-84
2023/08/13 10:05:22;;;;;;;2.30;1.07;;;23.90;99.90;;;;;;5038141;28;20555;-84
2023/08/13 10:07:49;;;;;;;3.73;1.60;;;24.00;24.50;;;;;;5037172;28;20535;-85
2023/08/13 10:10:17;;;;;;;6.83;1.40;;;23.90;99.90;;;;;;5034440;28;20480;-84
2023/08/13 10:12:46;;;;;;;2.87;1.40;;;23.90;99.90;;;;;;5022403;28;20449;-84
2023/08/13 10:15:13;;;;;;;3.43;1.50;;;24.00;99.90;;;;;;5019086;28;20899;-84
2023/08/13 10:17:43;;;;;;;3.50;1.50;;;24.00;1.00;;;;;;5018550;28;20488;-85
2023/08/13 10:20:10;;;;;;;4.73;1.83;;;24.20;99.90;;;;;;5039993;28;20516;-84
2023/08/13 10:22:38;;;;;;;3.93;1.60;;;24.40;1.00;;;;;;5042090;28;20850;-84
2023/08/13 10:25:07;;;;;;;3.63;1.40;;;24.70;99.90;;;;;;5037726;28;20572;-83
2023/08/13 10:27:36;;;;;;;4.67;2.30;;;24.90;1.00;;;;;;5035265;28;20513;-85
2023/08/13 10:30:10;;;;;;;4.07;1.40;;;25.10;99.90;;;;;;5042110;28;20552;-84
2023/08/13 10:32:49;;;;;;;7.27;1.80;;;25.40;60.90;;;;;;5022419;28;20539;-85
2023/08/13 10:35:24;;;;;;;6.20;1.40;;;25.70;1.00;;;;;;5026140;28;20477;-84
2023/08/13 10:37:53;;;;;;;3.53;1.40;;;26.00;99.90;;;;;;5037017;28;20492;-84
2023/08/13 10:40:20;;;;;;;4.10;1.70;;;26.20;99.90;;;;;;5043111;28;20932;-85
2023/08/13 10:42:51;;;;;;;3.70;1.40;;;26.30;99.90;;;;;;5042487;28;21014;-84
2023/08/13 10:45:22;;;;;;;3.97;1.70;;;26.40;1.00;;;;;;5043754;28;21024;-85
2023/08/13 10:47:51;;;;;;;5.73;1.40;;;26.10;99.90;;;;;;5045434;28;20532;-84
2023/08/13 10:50:29;;;;;;;5.23;1.63;;;26.00;48.10;;;;;;5043925;28;20939;-85
2023/08/13 10:53:03;;;;;;;5.30;1.90;;;26.10;1.00;;;;;;5037599;28;20767;-84
2023/08/13 10:55:31;;;;;;;4.67;1.30;;;26.10;47.20;;;;;;5038303;28;21072;-82
2023/08/13 10:58:01;;;;;;;4.20;1.73;;;26.10;99.90;;;;;;5039180;28;20965;-84
2023/08/13 11:00:29;;;;;;;4.10;1.70;;;26.20;99.90;;;;;;5039777;28;20462;-84
2023/08/13 11:02:59;;;;;;;6.73;1.93;;;26.20;99.90;;;;;;5036346;28;20451;-84
2023/08/13 11:05:28;;;;;;;4.90;1.80;;;26.60;58.10;;;;;;5040748;28;20498;-84
2023/08/13 11:07:55;;;;;;;5.57;1.93;;;26.80;1.00;;;;;;5043041;28;20444;-82
2023/08/13 11:10:22;;;;;;;5.10;1.90;;;26.70;99.90;;;;;;5043285;28;20556;-85
2023/08/13 11:12:50;;;;;;;3.73;1.67;;;26.70;99.90;;;;;;5042852;28;20455;-85
2023/08/13 11:15:17;;;;;;;5.83;2.00;;;26.80;99.90;;;;;;5041217;28;20564;-84
2023/08/13 11:17:47;;;;;;;4.37;1.67;;;26.70;99.90;;;;;;5040724;28;20516;-84
2023/08/13 11:20:16;;;;;;;5.10;1.77;;;26.60;74.60;;;;;;5034363;28;20434;-84
2023/08/13 11:22:43;;;;;;;5.83;1.87;;;26.50;50.30;;;;;;5027889;28;21005;-85
2023/08/13 11:25:11;;;;;;;6.00;1.93;;;26.30;47.30;;;;;;5078590;23;20529;-81
2023/08/13 11:27:39;;;;;;;5.50;2.20;;;26.00;99.90;;;;;;5072480;28;20443;-83
2023/08/13 11:30:08;;;;;;;3.40;1.50;;;25.60;99.90;;;;;;5080554;28;20856;-82
2023/08/13 11:32:36;;;;;;;4.10;1.93;;;25.60;99.90;;;;;;5078699;28;20504;-82
2023/08/13 11:35:09;;;;;;;5.10;2.30;;;25.40;99.90;;;;;;5064341;28;20476;-82
2023/08/13 11:37:36;;;;;;;6.60;1.90;;;25.30;1.00;;;;;;5066425;28;20446;-82
2023/08/13 11:40:05;;;;;;;5.20;1.80;;;25.50;99.90;;;;;;5079596;28;20506;-82
2023/08/13 11:42:32;;;;;;;5.20;1.83;;;25.70;99.90;;;;;;5076798;28;20458;-83
2023/08/13 11:44:58;;;;;;;4.40;1.80;;;25.90;37.60;;;;;;5067614;28;20486;-82
2023/08/13 11:47:26;;;;;;;5.73;2.30;;;26.10;99.90;;;;;;5079786;28;20490;-82
2023/08/13 11:49:54;;;;;;;4.43;1.63;;;26.40;1.00;;;;;;5080452;28;20451;-81
2023/08/13 11:52:23;;;;;;;5.40;2.10;;;26.50;1.00;;;;;;5080805;28;20486;-82
2023/08/13 11:54:51;;;;;;;4.73;2.30;;;26.50;1.00;;;;;;5080619;28;20923;-81
2023/08/13 11:57:18;;;;;;;5.93;2.07;;;26.40;99.90;;;;;;5079696;28;20928;-81
2023/08/13 11:59:48;;;;;;;4.13;1.70;;;26.10;1.00;;;;;;5080687;28;20835;-83
2023/08/13 12:02:14;;;;;;;9.90;2.57;;;26.20;98.00;;;;;;5080065;28;20439;-82
2023/08/13 12:04:45;;;;;;;7.97;2.10;;;26.30;99.90;;;;;;5079812;28;20554;-80
2023/08/13 12:07:12;;;;;;;5.33;1.80;;;26.10;99.90;;;;;;5078429;28;20541;-82
2023/08/13 12:09:40;;;;;;;4.23;1.67;;;26.00;95.90;;;;;;5079705;28;20478;-82
2023/08/13 12:12:07;;;;;;;5.13;2.40;;;25.80;99.90;;;;;;5079734;28;20885;-83
2023/08/13 12:14:42;;;;;;;6.37;2.33;;;25.80;1.00;;;;;;5080296;28;20463;-83
2023/08/13 12:17:09;;;;;;;6.33;2.70;;;25.80;99.90;;;;;;5079733;28;20545;-83
2023/08/13 12:19:36;;;;;;;4.80;2.53;;;26.00;99.90;;;;;;5080286;28;20716;-83
2023/08/13 12:22:03;;;;;;;5.57;1.97;;;26.10;1.00;;;;;;5079989;28;20455;-83
2023/08/13 12:24:30;;;;;;;6.97;2.10;;;26.40;99.90;;;;;;5079673;28;20489;-83
2023/08/13 12:26:58;;;;;;;5.47;2.13;;;26.40;99.90;;;;;;5080384;28;20443;-82
2023/08/13 12:29:25;;;;;;;3.47;1.77;;;26.20;1.00;;;;;;5077613;28;20451;-82
2023/08/13 12:31:51;;;;;;;6.20;2.63;;;26.10;1.00;;;;;;5080281;28;20849;-83
2023/08/13 12:34:18;;;;;;;4.00;2.10;;;26.10;99.90;;;;;;5080384;28;20449;-83
2023/08/13 12:36:45;;;;;;;5.70;2.57;;;26.10;99.90;;;;;;5079199;28;20453;-82
2023/08/13 12:39:12;;;;;;;7.77;2.43;;;25.80;99.90;;;;;;5079302;28;20455;-82
2023/08/13 12:41:38;;;;;;;6.73;2.30;;;25.70;99.90;;;;;;5079360;28;20868;-82
2023/08/13 12:44:07;;;;;;;5.23;2.27;;;25.70;1.00;;;;;;5076161;28;20455;-81
2023/08/13 12:46:34;;;;;;;4.63;2.13;;;25.70;1.00;;;;;;5076652;28;20443;-82
2023/08/13 12:49:01;;;;;;;4.83;2.07;;;25.70;1.00;;;;;;5077400;28;20447;-83
2023/08/13 12:51:27;;;;;;;5.30;2.47;;;25.90;1.00;;;;;;5079940;28;20486;-83